sensor_id;sensor_type;location;lat;lon;timestamp;P1;durP1;ratioP1;P2;durP2;ratioP2
68375;SDS011;55318;52.068;5.188;2023-02-15T00:00:06;21.9;;;10.6;;
68375;SDS011;55318;52.068;5.188;2023-02-15T00:01:44;17.8;;;10.7;;
68375;SDS011;55318;52.068;5.188;2023-02-15T00:04:58;17.91;;;9.6;;
68375;SDS011;55318;52.068;5.188;2023-02-15T00:06:34;21.0;;;10.7;;
68375;SDS011;55318;52.068;5.188;2023-02-15T00:08:11;17.61;;;9.71;;
68375;SDS011;55318;52.068;5.188;2023-02-15T00:09:47;16.3;;;10.1;;
68375;SDS011;55318;52.068;5.188;2023-02-15T00:13:17;19.91;;;10.6;;
68375;SDS011;55318;52.068;5.188;2023-02-15T00:14:53;16.3;;;9.9;;
68375;SDS011;55318;52.068;5.188;2023-02-15T00:16:29;20.0;;;10.3;;
68375;SDS011;55318;52.068;5.188;2023-02-15T00:18:08;19.7;;;9.9;;
68375;SDS011;55318;52.068;5.188;2023-02-15T00:21:20;17.0;;;9.81;;
68375;SDS011;55318;52.068;5.188;2023-02-15T00:22:57;17.11;;;10.3;;
68375;SDS011;55318;52.068;5.188;2023-02-15T00:24:34;15.4;;;8.81;;
68375;SDS011;55318;52.068;5.188;2023-02-15T00:27:48;17.0;;;9.81;;
68375;SDS011;55318;52.068;5.188;2023-02-15T00:29:25;19.3;;;10.0;;
68375;SDS011;55318;52.068;5.188;2023-02-15T00:31:03;20.6;;;10.3;;
68375;SDS011;55318;52.068;5.188;2023-02-15T00:34:17;20.11;;;10.4;;
68375;SDS011;55318;52.068;5.188;2023-02-15T00:35:56;16.4;;;9.5;;
68375;SDS011;55318;52.068;5.188;2023-02-15T00:37:33;20.7;;;9.71;;
68375;SDS011;55318;52.068;5.188;2023-02-15T00:39:09;19.2;;;10.8;;
68375;SDS011;55318;52.068;5.188;2023-02-15T00:42:28;20.6;;;10.21;;
68375;SDS011;55318;52.068;5.188;2023-02-15T00:44:05;18.7;;;9.81;;
68375;SDS011;55318;52.068;5.188;2023-02-15T00:45:43;20.3;;;11.3;;
68375;SDS011;55318;52.068;5.188;2023-02-15T00:48:57;18.2;;;9.5;;
68375;SDS011;55318;52.068;5.188;2023-02-15T00:50:33;18.41;;;10.5;;
68375;SDS011;55318;52.068;5.188;2023-02-15T00:52:09;19.0;;;10.6;;
68375;SDS011;55318;52.068;5.188;2023-02-15T00:53:45;19.2;;;9.21;;
68375;SDS011;55318;52.068;5.188;2023-02-15T00:56:59;19.41;;;9.71;;
68375;SDS011;55318;52.068;5.188;2023-02-15T00:58:35;18.2;;;10.0;;
68375;SDS011;55318;52.068;5.188;2023-02-15T01:00:12;21.4;;;9.71;;
68375;SDS011;55318;52.068;5.188;2023-02-15T01:03:25;17.7;;;9.81;;
68375;SDS011;55318;52.068;5.188;2023-02-15T01:05:01;17.2;;;9.71;;
68375;SDS011;55318;52.068;5.188;2023-02-15T01:06:37;16.8;;;9.1;;
68375;SDS011;55318;52.068;5.188;2023-02-15T01:09:50;19.11;;;9.6;;
68375;SDS011;55318;52.068;5.188;2023-02-15T01:11:27;17.5;;;9.9;;
68375;SDS011;55318;52.068;5.188;2023-02-15T01:13:03;17.11;;;10.1;;
68375;SDS011;55318;52.068;5.188;2023-02-15T01:14:40;16.7;;;9.4;;
68375;SDS011;55318;52.068;5.188;2023-02-15T01:17:53;18.7;;;10.5;;
68375;SDS011;55318;52.068;5.188;2023-02-15T01:19:30;13.9;;;9.1;;
68375;SDS011;55318;52.068;5.188;2023-02-15T01:21:09;17.91;;;10.1;;
68375;SDS011;55318;52.068;5.188;2023-02-15T01:24:26;16.5;;;10.1;;
68375;SDS011;55318;52.068;5.188;2023-02-15T01:26:03;15.1;;;8.9;;
68375;SDS011;55318;52.068;5.188;2023-02-15T01:27:39;19.5;;;10.3;;
68375;SDS011;55318;52.068;5.188;2023-02-15T01:29:15;16.61;;;9.6;;
68375;SDS011;55318;52.068;5.188;2023-02-15T01:32:28;15.4;;;8.31;;
68375;SDS011;55318;52.068;5.188;2023-02-15T01:34:04;16.0;;;9.4;;
68375;SDS011;55318;52.068;5.188;2023-02-15T01:35:40;18.0;;;9.81;;
68375;SDS011;55318;52.068;5.188;2023-02-15T01:38:52;15.1;;;9.6;;
68375;SDS011;55318;52.068;5.188;2023-02-15T01:40:28;19.3;;;8.4;;
68375;SDS011;55318;52.068;5.188;2023-02-15T01:42:07;20.8;;;9.31;;
68375;SDS011;55318;52.068;5.188;2023-02-15T01:45:26;14.8;;;8.81;;
68375;SDS011;55318;52.068;5.188;2023-02-15T01:47:04;19.3;;;9.81;;
68375;SDS011;55318;52.068;5.188;2023-02-15T01:48:40;15.0;;;9.4;;
68375;SDS011;55318;52.068;5.188;2023-02-15T01:50:23;16.61;;;9.5;;
68375;SDS011;55318;52.068;5.188;2023-02-15T01:53:43;18.91;;;9.4;;
68375;SDS011;55318;52.068;5.188;2023-02-15T01:55:26;16.5;;;9.21;;
68375;SDS011;55318;52.068;5.188;2023-02-15T01:57:09;15.3;;;9.21;;
68375;SDS011;55318;52.068;5.188;2023-02-15T01:58:52;20.8;;;10.7;;
68375;SDS011;55318;52.068;5.188;2023-02-15T02:02:09;17.41;;;10.1;;
68375;SDS011;55318;52.068;5.188;2023-02-15T02:03:51;18.61;;;9.81;;
68375;SDS011;55318;52.068;5.188;2023-02-15T02:05:34;16.5;;;9.6;;
68375;SDS011;55318;52.068;5.188;2023-02-15T02:07:11;16.3;;;9.5;;
68375;SDS011;55318;52.068;5.188;2023-02-15T02:10:28;17.41;;;9.4;;
68375;SDS011;55318;52.068;5.188;2023-02-15T02:12:04;15.3;;;9.6;;
68375;SDS011;55318;52.068;5.188;2023-02-15T02:13:41;20.0;;;9.5;;
68375;SDS011;55318;52.068;5.188;2023-02-15T02:15:20;18.3;;;9.21;;
68375;SDS011;55318;52.068;5.188;2023-02-15T02:18:55;18.11;;;9.21;;
68375;SDS011;55318;52.068;5.188;2023-02-15T02:21:09;18.8;;;9.81;;
68375;SDS011;55318;52.068;5.188;2023-02-15T02:26:15;20.2;;;10.1;;
68375;SDS011;55318;52.068;5.188;2023-02-15T02:29:26;17.7;;;9.9;;
68375;SDS011;55318;52.068;5.188;2023-02-15T02:32:53;17.41;;;9.6;;
68375;SDS011;55318;52.068;5.188;2023-02-15T02:35:42;17.7;;;9.0;;
68375;SDS011;55318;52.068;5.188;2023-02-15T02:37:28;26.6;;;9.9;;
68375;SDS011;55318;52.068;5.188;2023-02-15T02:39:13;19.91;;;8.9;;
68375;SDS011;55318;52.068;5.188;2023-02-15T02:41:05;17.2;;;9.81;;
68375;SDS011;55318;52.068;5.188;2023-02-15T02:42:54;16.0;;;9.9;;
68375;SDS011;55318;52.068;5.188;2023-02-15T02:44:39;20.41;;;10.1;;
68375;SDS011;55318;52.068;5.188;2023-02-15T02:48:02;16.9;;;9.9;;
68375;SDS011;55318;52.068;5.188;2023-02-15T02:49:43;16.9;;;9.4;;
68375;SDS011;55318;52.068;5.188;2023-02-15T02:51:21;15.3;;;9.0;;
68375;SDS011;55318;52.068;5.188;2023-02-15T02:52:58;16.61;;;8.9;;
68375;SDS011;55318;52.068;5.188;2023-02-15T02:56:13;16.7;;;9.31;;
68375;SDS011;55318;52.068;5.188;2023-02-15T02:57:57;15.7;;;8.31;;
68375;SDS011;55318;52.068;5.188;2023-02-15T02:59:41;15.5;;;9.0;;
68375;SDS011;55318;52.068;5.188;2023-02-15T03:01:24;15.8;;;8.5;;
68375;SDS011;55318;52.068;5.188;2023-02-15T03:04:59;20.2;;;8.9;;
68375;SDS011;55318;52.068;5.188;2023-02-15T03:06:45;18.7;;;9.6;;
68375;SDS011;55318;52.068;5.188;2023-02-15T03:08:30;18.7;;;10.4;;
68375;SDS011;55318;52.068;5.188;2023-02-15T03:10:12;14.8;;;8.4;;
68375;SDS011;55318;52.068;5.188;2023-02-15T03:11:49;15.6;;;8.5;;
68375;SDS011;55318;52.068;5.188;2023-02-15T03:15:05;16.4;;;9.21;;
68375;SDS011;55318;52.068;5.188;2023-02-15T03:16:46;14.3;;;8.71;;
68375;SDS011;55318;52.068;5.188;2023-02-15T03:18:27;16.8;;;9.0;;
68375;SDS011;55318;52.068;5.188;2023-02-15T03:20:15;19.41;;;9.71;;
68375;SDS011;55318;52.068;5.188;2023-02-15T03:23:45;17.8;;;8.81;;
68375;SDS011;55318;52.068;5.188;2023-02-15T03:25:23;15.2;;;8.0;;
68375;SDS011;55318;52.068;5.188;2023-02-15T03:27:04;15.4;;;8.2;;
68375;SDS011;55318;52.068;5.188;2023-02-15T03:28:46;15.4;;;8.2;;
68375;SDS011;55318;52.068;5.188;2023-02-15T03:32:05;16.7;;;8.4;;
68375;SDS011;55318;52.068;5.188;2023-02-15T03:33:48;16.9;;;8.81;;
68375;SDS011;55318;52.068;5.188;2023-02-15T03:35:31;17.0;;;9.31;;
68375;SDS011;55318;52.068;5.188;2023-02-15T03:37:22;17.61;;;9.4;;
68375;SDS011;55318;52.068;5.188;2023-02-15T03:39:07;16.2;;;9.71;;
68375;SDS011;55318;52.068;5.188;2023-02-15T03:43:04;17.61;;;9.4;;
68375;SDS011;55318;52.068;5.188;2023-02-15T03:44:50;16.2;;;9.31;;
68375;SDS011;55318;52.068;5.188;2023-02-15T03:46:34;17.11;;;9.31;;
68375;SDS011;55318;52.068;5.188;2023-02-15T03:48:18;20.0;;;9.71;;
68375;SDS011;55318;52.068;5.188;2023-02-15T03:49:59;17.91;;;9.81;;
68375;SDS011;55318;52.068;5.188;2023-02-15T03:51:41;17.11;;;9.5;;
68375;SDS011;55318;52.068;5.188;2023-02-15T03:55:01;14.1;;;7.5;;
68375;SDS011;55318;52.068;5.188;2023-02-15T03:56:39;17.41;;;9.0;;
68375;SDS011;55318;52.068;5.188;2023-02-15T04:02:27;17.61;;;9.1;;
68375;SDS011;55318;52.068;5.188;2023-02-15T04:04:13;16.9;;;9.5;;
68375;SDS011;55318;52.068;5.188;2023-02-15T04:07:31;16.61;;;8.5;;
68375;SDS011;55318;52.068;5.188;2023-02-15T04:12:42;17.91;;;9.0;;
68375;SDS011;55318;52.068;5.188;2023-02-15T04:17:43;14.3;;;8.4;;
68375;SDS011;55318;52.068;5.188;2023-02-15T04:25:18;16.3;;;9.1;;
68375;SDS011;55318;52.068;5.188;2023-02-15T04:26:56;15.4;;;9.21;;
68375;SDS011;55318;52.068;5.188;2023-02-15T04:28:33;17.11;;;8.4;;
68375;SDS011;55318;52.068;5.188;2023-02-15T04:30:10;17.11;;;8.81;;
68375;SDS011;55318;52.068;5.188;2023-02-15T04:31:48;17.7;;;9.4;;
68375;SDS011;55318;52.068;5.188;2023-02-15T04:33:25;16.3;;;8.9;;
68375;SDS011;55318;52.068;5.188;2023-02-15T04:36:39;15.1;;;8.1;;
68375;SDS011;55318;52.068;5.188;2023-02-15T04:38:16;16.4;;;9.0;;
68375;SDS011;55318;52.068;5.188;2023-02-15T04:39:52;18.3;;;9.0;;
68375;SDS011;55318;52.068;5.188;2023-02-15T04:43:05;16.2;;;8.4;;
68375;SDS011;55318;52.068;5.188;2023-02-15T04:44:41;16.3;;;9.0;;
68375;SDS011;55318;52.068;5.188;2023-02-15T04:46:19;16.0;;;8.6;;
68375;SDS011;55318;52.068;5.188;2023-02-15T04:49:31;15.1;;;7.7;;
68375;SDS011;55318;52.068;5.188;2023-02-15T04:51:07;15.1;;;7.7;;
68375;SDS011;55318;52.068;5.188;2023-02-15T04:52:43;24.6;;;9.21;;
68375;SDS011;55318;52.068;5.188;2023-02-15T04:54:20;15.5;;;9.31;;
68375;SDS011;55318;52.068;5.188;2023-02-15T04:57:32;19.3;;;10.1;;
68375;SDS011;55318;52.068;5.188;2023-02-15T04:59:09;17.8;;;8.81;;
68375;SDS011;55318;52.068;5.188;2023-02-15T05:00:46;16.9;;;8.9;;
68375;SDS011;55318;52.068;5.188;2023-02-15T05:03:58;20.5;;;10.1;;
68375;SDS011;55318;52.068;5.188;2023-02-15T05:05:34;18.61;;;10.4;;
68375;SDS011;55318;52.068;5.188;2023-02-15T05:07:10;16.61;;;9.31;;
68375;SDS011;55318;52.068;5.188;2023-02-15T05:10:22;18.2;;;9.4;;
68375;SDS011;55318;52.068;5.188;2023-02-15T05:11:59;15.4;;;9.31;;
68375;SDS011;55318;52.068;5.188;2023-02-15T05:13:35;18.8;;;9.1;;
68375;SDS011;55318;52.068;5.188;2023-02-15T05:16:47;19.61;;;10.1;;
68375;SDS011;55318;52.068;5.188;2023-02-15T05:18:23;18.41;;;9.81;;
68375;SDS011;55318;52.068;5.188;2023-02-15T05:19:59;17.2;;;9.5;;
68375;SDS011;55318;52.068;5.188;2023-02-15T05:21:35;16.2;;;8.9;;
68375;SDS011;55318;52.068;5.188;2023-02-15T05:28:58;16.3;;;9.21;;
68375;SDS011;55318;52.068;5.188;2023-02-15T05:30:34;16.3;;;9.21;;
68375;SDS011;55318;52.068;5.188;2023-02-15T05:32:12;15.5;;;9.0;;
68375;SDS011;55318;52.068;5.188;2023-02-15T05:35:25;16.61;;;9.71;;
68375;SDS011;55318;52.068;5.188;2023-02-15T05:37:02;16.61;;;8.81;;
68375;SDS011;55318;52.068;5.188;2023-02-15T05:38:38;18.2;;;9.71;;
68375;SDS011;55318;52.068;5.188;2023-02-15T05:41:51;16.7;;;9.9;;
68375;SDS011;55318;52.068;5.188;2023-02-15T05:43:27;19.0;;;9.4;;
68375;SDS011;55318;52.068;5.188;2023-02-15T05:45:06;18.41;;;10.1;;
68375;SDS011;55318;52.068;5.188;2023-02-15T05:46:42;18.0;;;9.6;;
68375;SDS011;55318;52.068;5.188;2023-02-15T05:49:58;15.8;;;9.31;;
68375;SDS011;55318;52.068;5.188;2023-02-15T05:51:34;17.41;;;9.9;;
68375;SDS011;55318;52.068;5.188;2023-02-15T05:53:10;14.5;;;8.9;;
68375;SDS011;55318;52.068;5.188;2023-02-15T05:56:22;18.5;;;9.6;;
68375;SDS011;55318;52.068;5.188;2023-02-15T05:57:59;16.3;;;9.1;;
68375;SDS011;55318;52.068;5.188;2023-02-15T05:59:35;17.61;;;9.71;;
68375;SDS011;55318;52.068;5.188;2023-02-15T06:02:50;15.6;;;8.71;;
68375;SDS011;55318;52.068;5.188;2023-02-15T06:04:26;19.11;;;9.81;;
68375;SDS011;55318;52.068;5.188;2023-02-15T06:06:04;17.11;;;10.5;;
68375;SDS011;55318;52.068;5.188;2023-02-15T06:07:42;19.7;;;9.1;;
68375;SDS011;55318;52.068;5.188;2023-02-15T06:10:56;21.2;;;10.21;;
68375;SDS011;55318;52.068;5.188;2023-02-15T06:12:32;18.11;;;9.6;;
68375;SDS011;55318;52.068;5.188;2023-02-15T06:14:08;16.61;;;9.21;;
68375;SDS011;55318;52.068;5.188;2023-02-15T06:17:21;19.11;;;9.71;;
68375;SDS011;55318;52.068;5.188;2023-02-15T06:18:59;19.91;;;10.3;;
68375;SDS011;55318;52.068;5.188;2023-02-15T06:20:36;18.7;;;9.9;;
68375;SDS011;55318;52.068;5.188;2023-02-15T06:22:13;21.5;;;10.3;;
68375;SDS011;55318;52.068;5.188;2023-02-15T06:25:26;20.9;;;10.6;;
68375;SDS011;55318;52.068;5.188;2023-02-15T06:27:02;18.91;;;10.3;;
68375;SDS011;55318;52.068;5.188;2023-02-15T06:28:38;19.91;;;10.21;;
68375;SDS011;55318;52.068;5.188;2023-02-15T06:31:50;20.3;;;10.8;;
68375;SDS011;55318;52.068;5.188;2023-02-15T06:33:27;17.91;;;9.4;;
68375;SDS011;55318;52.068;5.188;2023-02-15T06:35:03;18.11;;;9.5;;
68375;SDS011;55318;52.068;5.188;2023-02-15T06:38:17;20.6;;;10.3;;
68375;SDS011;55318;52.068;5.188;2023-02-15T06:39:53;16.8;;;9.1;;
68375;SDS011;55318;52.068;5.188;2023-02-15T06:41:29;16.2;;;8.6;;
68375;SDS011;55318;52.068;5.188;2023-02-15T06:43:05;21.6;;;9.9;;
68375;SDS011;55318;52.068;5.188;2023-02-15T06:46:18;20.5;;;10.1;;
68375;SDS011;55318;52.068;5.188;2023-02-15T06:47:54;20.5;;;10.1;;
68375;SDS011;55318;52.068;5.188;2023-02-15T06:49:30;19.2;;;9.21;;
68375;SDS011;55318;52.068;5.188;2023-02-15T06:52:42;22.9;;;10.21;;
68375;SDS011;55318;52.068;5.188;2023-02-15T06:54:18;20.9;;;9.71;;
68375;SDS011;55318;52.068;5.188;2023-02-15T06:55:59;20.3;;;10.8;;
68375;SDS011;55318;52.068;5.188;2023-02-15T06:59:13;20.9;;;10.8;;
68375;SDS011;55318;52.068;5.188;2023-02-15T07:00:50;15.9;;;8.9;;
68375;SDS011;55318;52.068;5.188;2023-02-15T07:02:27;16.2;;;9.31;;
68375;SDS011;55318;52.068;5.188;2023-02-15T07:04:03;22.2;;;9.6;;
68375;SDS011;55318;52.068;5.188;2023-02-15T07:07:16;18.5;;;9.81;;
68375;SDS011;55318;52.068;5.188;2023-02-15T07:08:52;18.11;;;9.0;;
68375;SDS011;55318;52.068;5.188;2023-02-15T07:10:28;19.11;;;10.21;;
68375;SDS011;55318;52.068;5.188;2023-02-15T07:14:45;15.5;;;10.21;;
68375;SDS011;55318;52.068;5.188;2023-02-15T07:17:58;16.7;;;9.71;;
68375;SDS011;55318;52.068;5.188;2023-02-15T07:19:33;18.91;;;9.6;;
68375;SDS011;55318;52.068;5.188;2023-02-15T07:21:10;19.3;;;9.1;;
68375;SDS011;55318;52.068;5.188;2023-02-15T07:24:23;19.3;;;9.6;;
68375;SDS011;55318;52.068;5.188;2023-02-15T07:25:59;18.11;;;10.0;;
68375;SDS011;55318;52.068;5.188;2023-02-15T07:27:36;20.2;;;10.21;;
68375;SDS011;55318;52.068;5.188;2023-02-15T07:29:13;19.5;;;10.5;;
68375;SDS011;55318;52.068;5.188;2023-02-15T07:32:27;17.91;;;9.6;;
68375;SDS011;55318;52.068;5.188;2023-02-15T07:34:05;18.3;;;10.0;;
68375;SDS011;55318;52.068;5.188;2023-02-15T07:35:46;21.4;;;10.7;;
68375;SDS011;55318;52.068;5.188;2023-02-15T07:39:00;19.7;;;9.6;;
68375;SDS011;55318;52.068;5.188;2023-02-15T07:40:36;20.8;;;9.6;;
68375;SDS011;55318;52.068;5.188;2023-02-15T07:42:13;20.41;;;9.5;;
68375;SDS011;55318;52.068;5.188;2023-02-15T07:43:49;22.8;;;10.7;;
68375;SDS011;55318;52.068;5.188;2023-02-15T07:47:01;19.41;;;9.81;;
68375;SDS011;55318;52.068;5.188;2023-02-15T07:48:38;23.2;;;10.7;;
68375;SDS011;55318;52.068;5.188;2023-02-15T07:50:15;20.11;;;9.6;;
68375;SDS011;55318;52.068;5.188;2023-02-15T07:53:29;18.61;;;9.21;;
68375;SDS011;55318;52.068;5.188;2023-02-15T07:55:06;20.5;;;9.5;;
68375;SDS011;55318;52.068;5.188;2023-02-15T07:56:43;22.2;;;10.21;;
68375;SDS011;55318;52.068;5.188;2023-02-15T07:59:56;19.5;;;9.71;;
68375;SDS011;55318;52.068;5.188;2023-02-15T08:01:34;19.61;;;9.81;;
68375;SDS011;55318;52.068;5.188;2023-02-15T08:03:15;16.61;;;9.6;;
68375;SDS011;55318;52.068;5.188;2023-02-15T08:04:51;18.2;;;9.1;;
68375;SDS011;55318;52.068;5.188;2023-02-15T08:08:06;18.3;;;9.21;;
68375;SDS011;55318;52.068;5.188;2023-02-15T08:09:43;20.41;;;9.1;;
68375;SDS011;55318;52.068;5.188;2023-02-15T08:11:29;16.5;;;9.0;;
68375;SDS011;55318;52.068;5.188;2023-02-15T08:13:07;17.0;;;9.31;;
68375;SDS011;55318;52.068;5.188;2023-02-15T08:16:21;17.7;;;9.71;;
68375;SDS011;55318;52.068;5.188;2023-02-15T08:18:00;16.9;;;10.1;;
68375;SDS011;55318;52.068;5.188;2023-02-15T08:19:36;17.91;;;9.4;;
68375;SDS011;55318;52.068;5.188;2023-02-15T08:22:49;20.6;;;9.9;;
68375;SDS011;55318;52.068;5.188;2023-02-15T08:24:26;19.11;;;9.1;;
68375;SDS011;55318;52.068;5.188;2023-02-15T08:26:04;19.5;;;9.1;;
68375;SDS011;55318;52.068;5.188;2023-02-15T08:27:41;20.6;;;9.4;;
68375;SDS011;55318;52.068;5.188;2023-02-15T08:31:03;16.0;;;9.31;;
68375;SDS011;55318;52.068;5.188;2023-02-15T08:32:40;13.9;;;9.0;;
68375;SDS011;55318;52.068;5.188;2023-02-15T08:34:17;17.5;;;9.31;;
68375;SDS011;55318;52.068;5.188;2023-02-15T08:37:31;18.0;;;10.0;;
68375;SDS011;55318;52.068;5.188;2023-02-15T08:39:07;20.0;;;9.21;;
68375;SDS011;55318;52.068;5.188;2023-02-15T08:40:44;21.1;;;9.31;;
68375;SDS011;55318;52.068;5.188;2023-02-15T08:42:20;18.61;;;9.1;;
68375;SDS011;55318;52.068;5.188;2023-02-15T08:45:36;16.8;;;8.6;;
68375;SDS011;55318;52.068;5.188;2023-02-15T08:47:12;16.2;;;9.5;;
68375;SDS011;55318;52.068;5.188;2023-02-15T08:48:48;16.2;;;8.81;;
68375;SDS011;55318;52.068;5.188;2023-02-15T08:52:02;20.7;;;9.6;;
68375;SDS011;55318;52.068;5.188;2023-02-15T08:53:38;18.7;;;10.0;;
68375;SDS011;55318;52.068;5.188;2023-02-15T08:55:16;15.2;;;8.1;;
68375;SDS011;55318;52.068;5.188;2023-02-15T08:58:29;17.61;;;9.31;;
68375;SDS011;55318;52.068;5.188;2023-02-15T09:00:06;18.61;;;9.21;;
68375;SDS011;55318;52.068;5.188;2023-02-15T09:01:43;18.2;;;9.21;;
68375;SDS011;55318;52.068;5.188;2023-02-15T09:03:20;17.11;;;9.71;;
68375;SDS011;55318;52.068;5.188;2023-02-15T09:06:32;20.41;;;10.1;;
68375;SDS011;55318;52.068;5.188;2023-02-15T09:08:09;17.5;;;9.71;;
68375;SDS011;55318;52.068;5.188;2023-02-15T09:09:45;18.3;;;10.21;;
68375;SDS011;55318;52.068;5.188;2023-02-15T09:13:01;24.6;;;10.0;;
68375;SDS011;55318;52.068;5.188;2023-02-15T09:14:38;18.2;;;8.81;;
68375;SDS011;55318;52.068;5.188;2023-02-15T09:16:16;18.11;;;9.6;;
68375;SDS011;55318;52.068;5.188;2023-02-15T09:17:53;21.3;;;10.4;;
68375;SDS011;55318;52.068;5.188;2023-02-15T09:21:07;17.11;;;9.5;;
68375;SDS011;55318;52.068;5.188;2023-02-15T09:22:44;21.1;;;10.8;;
68375;SDS011;55318;52.068;5.188;2023-02-15T09:24:21;22.7;;;11.1;;
68375;SDS011;55318;52.068;5.188;2023-02-15T09:27:39;18.7;;;9.71;;
68375;SDS011;55318;52.068;5.188;2023-02-15T09:29:16;19.2;;;9.9;;
68375;SDS011;55318;52.068;5.188;2023-02-15T09:30:53;21.1;;;10.1;;
68375;SDS011;55318;52.068;5.188;2023-02-15T09:34:05;22.9;;;11.2;;
68375;SDS011;55318;52.068;5.188;2023-02-15T09:35:41;17.91;;;10.3;;
68375;SDS011;55318;52.068;5.188;2023-02-15T09:37:18;21.2;;;11.2;;
68375;SDS011;55318;52.068;5.188;2023-02-15T09:38:55;20.8;;;10.1;;
68375;SDS011;55318;52.068;5.188;2023-02-15T09:42:59;20.3;;;10.5;;
68375;SDS011;55318;52.068;5.188;2023-02-15T09:45:01;22.9;;;11.3;;
68375;SDS011;55318;52.068;5.188;2023-02-15T09:47:18;19.8;;;10.6;;
68375;SDS011;55318;52.068;5.188;2023-02-15T09:51:07;22.6;;;10.7;;
68375;SDS011;55318;52.068;5.188;2023-02-15T09:53:03;23.1;;;11.3;;
68375;SDS011;55318;52.068;5.188;2023-02-15T09:55:00;19.8;;;10.1;;
68375;SDS011;55318;52.068;5.188;2023-02-15T09:56:51;18.7;;;10.7;;
68375;SDS011;55318;52.068;5.188;2023-02-15T09:58:35;21.0;;;11.9;;
68375;SDS011;55318;52.068;5.188;2023-02-15T10:00:24;19.41;;;10.6;;
68375;SDS011;55318;52.068;5.188;2023-02-15T10:02:18;20.0;;;10.6;;
68375;SDS011;55318;52.068;5.188;2023-02-15T10:04:12;21.7;;;11.7;;
68375;SDS011;55318;52.068;5.188;2023-02-15T10:06:10;23.6;;;11.0;;
68375;SDS011;55318;52.068;5.188;2023-02-15T10:10:28;25.2;;;11.5;;
68375;SDS011;55318;52.068;5.188;2023-02-15T10:12:23;19.61;;;9.5;;
68375;SDS011;55318;52.068;5.188;2023-02-15T10:16:12;19.2;;;9.71;;
68375;SDS011;55318;52.068;5.188;2023-02-15T10:18:18;18.91;;;11.3;;
68375;SDS011;55318;52.068;5.188;2023-02-15T10:20:54;20.2;;;11.0;;
68375;SDS011;55318;52.068;5.188;2023-02-15T10:24:30;21.2;;;10.4;;
68375;SDS011;55318;52.068;5.188;2023-02-15T10:26:37;24.1;;;10.9;;
68375;SDS011;55318;52.068;5.188;2023-02-15T10:28:23;22.6;;;11.8;;
68375;SDS011;55318;52.068;5.188;2023-02-15T10:30:06;18.0;;;11.5;;
68375;SDS011;55318;52.068;5.188;2023-02-15T10:31:48;26.6;;;11.5;;
68375;SDS011;55318;52.068;5.188;2023-02-15T10:33:32;24.2;;;12.3;;
68375;SDS011;55318;52.068;5.188;2023-02-15T10:37:05;26.7;;;12.1;;
68375;SDS011;55318;52.068;5.188;2023-02-15T10:39:56;23.5;;;11.6;;
68375;SDS011;55318;52.068;5.188;2023-02-15T10:41:45;22.7;;;11.4;;
68375;SDS011;55318;52.068;5.188;2023-02-15T10:45:28;25.9;;;12.4;;
68375;SDS011;55318;52.068;5.188;2023-02-15T10:47:16;23.2;;;11.5;;
68375;SDS011;55318;52.068;5.188;2023-02-15T10:49:21;26.8;;;11.4;;
68375;SDS011;55318;52.068;5.188;2023-02-15T10:51:44;26.2;;;12.2;;
68375;SDS011;55318;52.068;5.188;2023-02-15T10:53:42;23.6;;;11.5;;
68375;SDS011;55318;52.068;5.188;2023-02-15T10:56:00;22.9;;;11.5;;
68375;SDS011;55318;52.068;5.188;2023-02-15T10:57:49;26.1;;;11.7;;
68375;SDS011;55318;52.068;5.188;2023-02-15T10:59:47;24.3;;;11.5;;
68375;SDS011;55318;52.068;5.188;2023-02-15T11:01:41;25.4;;;12.7;;
68375;SDS011;55318;52.068;5.188;2023-02-15T11:03:29;22.0;;;11.2;;
68375;SDS011;55318;52.068;5.188;2023-02-15T11:05:21;20.5;;;11.3;;
68375;SDS011;55318;52.068;5.188;2023-02-15T11:07:12;22.1;;;11.9;;
68375;SDS011;55318;52.068;5.188;2023-02-15T11:08:55;22.3;;;11.3;;
68375;SDS011;55318;52.068;5.188;2023-02-15T11:12:21;23.2;;;11.5;;
68375;SDS011;55318;52.068;5.188;2023-02-15T11:14:02;21.7;;;12.5;;
68375;SDS011;55318;52.068;5.188;2023-02-15T11:15:51;22.5;;;12.3;;
68375;SDS011;55318;52.068;5.188;2023-02-15T11:17:33;22.4;;;11.6;;
68375;SDS011;55318;52.068;5.188;2023-02-15T11:19:16;24.5;;;12.2;;
68375;SDS011;55318;52.068;5.188;2023-02-15T11:22:39;25.3;;;11.6;;
68375;SDS011;55318;52.068;5.188;2023-02-15T11:24:18;22.0;;;11.9;;
68375;SDS011;55318;52.068;5.188;2023-02-15T11:25:58;23.9;;;12.1;;
68375;SDS011;55318;52.068;5.188;2023-02-15T11:27:37;25.3;;;12.5;;
68375;SDS011;55318;52.068;5.188;2023-02-15T11:31:02;22.1;;;12.1;;
68375;SDS011;55318;52.068;5.188;2023-02-15T11:32:50;27.5;;;12.1;;
68375;SDS011;55318;52.068;5.188;2023-02-15T11:34:31;24.4;;;12.0;;
68375;SDS011;55318;52.068;5.188;2023-02-15T11:36:12;24.1;;;12.0;;
68375;SDS011;55318;52.068;5.188;2023-02-15T11:39:35;21.3;;;11.6;;
68375;SDS011;55318;52.068;5.188;2023-02-15T11:41:13;21.7;;;12.3;;
68375;SDS011;55318;52.068;5.188;2023-02-15T11:42:55;24.9;;;12.0;;
68375;SDS011;55318;52.068;5.188;2023-02-15T11:44:36;27.2;;;13.2;;
68375;SDS011;55318;52.068;5.188;2023-02-15T11:47:57;24.6;;;14.0;;
68375;SDS011;55318;52.068;5.188;2023-02-15T11:49:34;26.6;;;12.4;;
68375;SDS011;55318;52.068;5.188;2023-02-15T11:51:14;27.8;;;13.7;;
68375;SDS011;55318;52.068;5.188;2023-02-15T11:52:57;24.1;;;14.7;;
68375;SDS011;55318;52.068;5.188;2023-02-15T11:56:18;25.6;;;13.0;;
68375;SDS011;55318;52.068;5.188;2023-02-15T11:57:59;23.7;;;11.3;;
68375;SDS011;55318;52.068;5.188;2023-02-15T11:59:40;22.1;;;12.1;;
68375;SDS011;55318;52.068;5.188;2023-02-15T12:01:24;25.0;;;12.8;;
68375;SDS011;55318;52.068;5.188;2023-02-15T12:04:52;25.1;;;13.3;;
68375;SDS011;55318;52.068;5.188;2023-02-15T12:06:33;26.8;;;13.7;;
68375;SDS011;55318;52.068;5.188;2023-02-15T12:08:16;26.1;;;13.7;;
68375;SDS011;55318;52.068;5.188;2023-02-15T12:09:59;25.7;;;13.3;;
68375;SDS011;55318;52.068;5.188;2023-02-15T12:11:40;22.1;;;11.5;;
68375;SDS011;55318;52.068;5.188;2023-02-15T12:14:56;27.2;;;14.6;;
68375;SDS011;55318;52.068;5.188;2023-02-15T12:16:39;31.5;;;13.2;;
68375;SDS011;55318;52.068;5.188;2023-02-15T12:18:20;22.0;;;12.7;;
68375;SDS011;55318;52.068;5.188;2023-02-15T12:20:21;23.4;;;12.0;;
68375;SDS011;55318;52.068;5.188;2023-02-15T12:25:26;25.4;;;13.3;;
68375;SDS011;55318;52.068;5.188;2023-02-15T12:27:13;22.4;;;12.2;;
68375;SDS011;55318;52.068;5.188;2023-02-15T12:28:54;27.6;;;13.6;;
68375;SDS011;55318;52.068;5.188;2023-02-15T12:30:34;25.7;;;12.9;;
68375;SDS011;55318;52.068;5.188;2023-02-15T12:33:55;27.0;;;12.5;;
68375;SDS011;55318;52.068;5.188;2023-02-15T12:35:34;24.5;;;13.5;;
68375;SDS011;55318;52.068;5.188;2023-02-15T12:37:14;22.9;;;12.3;;
68375;SDS011;55318;52.068;5.188;2023-02-15T12:39:25;26.8;;;14.6;;
68375;SDS011;55318;52.068;5.188;2023-02-15T12:41:03;26.1;;;13.6;;
68375;SDS011;55318;52.068;5.188;2023-02-15T12:42:57;25.0;;;13.3;;
68375;SDS011;55318;52.068;5.188;2023-02-15T12:46:13;29.1;;;15.1;;
68375;SDS011;55318;52.068;5.188;2023-02-15T12:48:14;30.0;;;14.1;;
68375;SDS011;55318;52.068;5.188;2023-02-15T12:50:11;24.5;;;12.8;;
68375;SDS011;55318;52.068;5.188;2023-02-15T12:51:51;27.3;;;14.0;;
68375;SDS011;55318;52.068;5.188;2023-02-15T12:53:30;23.0;;;12.9;;
68375;SDS011;55318;52.068;5.188;2023-02-15T12:56:54;25.4;;;14.2;;
68375;SDS011;55318;52.068;5.188;2023-02-15T12:58:31;26.1;;;13.6;;
68375;SDS011;55318;52.068;5.188;2023-02-15T13:00:24;29.0;;;13.9;;
68375;SDS011;55318;52.068;5.188;2023-02-15T13:02:05;23.4;;;13.7;;
68375;SDS011;55318;52.068;5.188;2023-02-15T13:03:56;29.7;;;14.5;;
68375;SDS011;55318;52.068;5.188;2023-02-15T13:07:14;27.3;;;13.7;;
68375;SDS011;55318;52.068;5.188;2023-02-15T13:08:52;27.8;;;14.5;;
68375;SDS011;55318;52.068;5.188;2023-02-15T13:10:31;25.9;;;13.0;;
68375;SDS011;55318;52.068;5.188;2023-02-15T13:12:16;25.6;;;14.0;;